CTD3 weather

Lac S├ębastien Seaplane Base
Quebec, Canada

Public forecast

Using degrees Celsius for public forecast. Weather courtesy of forecast.io.

METAR (pilot weather report)

Closest report is CFB Bagotville, 20.2 nm (37.4 km) SSE. Retrieved 2019/05/19 11:20 UTC (36 minutes ago):

CYBG 191120Z 13002KT 25SM BKN055 OVC120 07/04 A3007 RMK SC5AC3 SLP186

TAF (pilot weather forecast)

Closest forecast is CFB Bagotville, 20.2 nm (37.4 km) SSE. Retrieved 2019/05/19 06:33 UTC (5 hours ago):

TAF TAF CYBG 190530Z 1906/2006 VRB03KT P6SM SCT080 BKN250 FM190800 09008KT 6SM -RA BR SCT020 OVC030 TEMPO 1908/1912 5SM -RA BR OVC020 FM191200 09012KT 5SM -RA BR OVC015 FM191800 10010KT 6SM -RA BR SCT008 OVC020 TEMPO 1918/2004 2SM -SHRA BR OVC008 FM200400 09012KT 2SM -RA BR OVC006 RMK NXT FCST BY 191200Z